createdAt,value
2022-11-24T00:00:52.804Z,16.70
2022-11-24T00:03:26.167Z,17.90
2022-11-24T00:05:52.891Z,13.30
2022-11-24T00:08:19.599Z,17.00
2022-11-24T00:10:46.349Z,14.40
2022-11-24T00:13:13.109Z,16.70
2022-11-24T00:15:39.871Z,14.80
2022-11-24T00:18:06.579Z,13.30
2022-11-24T00:20:33.248Z,18.70
2022-11-24T00:23:00.947Z,11.30
2022-11-24T00:25:27.740Z,12.20
2022-11-24T00:27:54.477Z,9.60
2022-11-24T00:30:21.198Z,10.00
2022-11-24T00:32:47.935Z,11.20
2022-11-24T00:35:14.686Z,27.90
2022-11-24T00:37:41.436Z,12.30
2022-11-24T00:40:08.487Z,12.70
2022-11-24T00:42:35.244Z,8.90
2022-11-24T00:45:12.972Z,16.40
2022-11-24T00:47:40.457Z,15.10
2022-11-24T00:50:07.456Z,15.20
2022-11-24T00:52:34.186Z,10.40
2022-11-24T00:55:01.039Z,15.90
2022-11-24T00:57:27.737Z,11.40
2022-11-24T00:59:54.427Z,13.70
2022-11-24T01:02:21.143Z,23.40
2022-11-24T01:04:47.866Z,20.30
2022-11-24T01:07:14.769Z,10.80
2022-11-24T01:09:42.774Z,13.80
2022-11-24T01:12:09.512Z,12.60
2022-11-24T01:14:36.627Z,10.70
2022-11-24T01:17:03.663Z,14.20
2022-11-24T01:19:30.350Z,10.30
2022-11-24T01:21:57.022Z,10.90
2022-11-24T01:24:23.987Z,13.40
2022-11-24T01:26:50.869Z,17.00
2022-11-24T01:29:17.649Z,12.50
2022-11-24T01:31:44.357Z,13.30
2022-11-24T01:34:12.509Z,9.80
2022-11-24T01:36:39.307Z,12.60
2022-11-24T01:39:06.044Z,10.10
2022-11-24T01:41:34.224Z,12.60
2022-11-24T01:44:01.018Z,15.00
2022-11-24T01:46:38.300Z,9.50
2022-11-24T01:49:07.909Z,12.00
2022-11-24T01:51:41.400Z,13.10
2022-11-24T01:54:15.883Z,10.90
2022-11-24T01:56:46.433Z,14.40
2022-11-24T01:59:15.745Z,9.20
2022-11-24T02:01:42.622Z,8.00
2022-11-24T02:04:16.817Z,11.20
2022-11-24T02:06:46.357Z,9.40
2022-11-24T02:09:16.645Z,8.60
2022-11-24T02:11:44.474Z,9.00
2022-11-24T02:14:15.555Z,8.80
2022-11-24T02:16:47.610Z,11.60
2022-11-24T02:19:23.948Z,8.10
2022-11-24T02:21:51.276Z,10.60
2022-11-24T02:24:24.932Z,9.30
2022-11-24T02:26:51.991Z,10.90
2022-11-24T02:29:20.352Z,10.10
2022-11-24T02:31:54.584Z,11.80
2022-11-24T02:34:21.268Z,9.20
2022-11-24T02:36:47.983Z,11.90
2022-11-24T02:39:15.736Z,8.90
2022-11-24T02:41:49.068Z,9.60
2022-11-24T02:44:19.554Z,7.60
2022-11-24T02:46:46.224Z,9.50
2022-11-24T02:49:12.923Z,12.30
2022-11-24T02:51:40.263Z,12.60
2022-11-24T02:54:07.143Z,13.40
2022-11-24T02:56:33.881Z,9.50
2022-11-24T02:59:00.569Z,8.80
2022-11-24T03:01:27.398Z,10.60
2022-11-24T03:03:54.114Z,9.80
2022-11-24T03:06:20.801Z,8.80
2022-11-24T03:08:47.483Z,9.30
2022-11-24T03:11:14.257Z,11.40
2022-11-24T03:13:41.016Z,12.10
2022-11-24T03:16:09.829Z,13.10
2022-11-24T03:18:36.565Z,16.30
2022-11-24T03:21:03.584Z,14.60
2022-11-24T03:23:30.254Z,20.10
2022-11-24T03:26:10.612Z,11.90
2022-11-24T03:28:37.520Z,14.30
2022-11-24T03:31:05.109Z,15.50
2022-11-24T03:33:31.981Z,11.40
2022-11-24T03:35:58.658Z,12.20
2022-11-24T03:38:25.497Z,13.30
2022-11-24T03:40:52.428Z,12.00
2022-11-24T03:43:19.135Z,15.90
2022-11-24T03:45:47.086Z,15.20
2022-11-24T03:48:15.306Z,10.10
2022-11-24T03:50:42.814Z,16.10
2022-11-24T03:53:10.063Z,15.80
2022-11-24T03:55:36.834Z,15.90
2022-11-24T03:58:03.501Z,9.60
2022-11-24T04:00:31.049Z,13.20
2022-11-24T04:02:57.888Z,12.10
2022-11-24T04:05:24.711Z,16.10
2022-11-24T04:07:55.668Z,14.60
2022-11-24T04:10:23.728Z,11.90
2022-11-24T04:12:50.427Z,9.70
2022-11-24T04:15:19.286Z,12.50
2022-11-24T04:17:47.927Z,13.90
2022-11-24T04:20:15.963Z,9.10
2022-11-24T04:22:43.099Z,12.30
2022-11-24T04:25:10.411Z,11.80
2022-11-24T04:27:38.051Z,12.00
2022-11-24T04:30:06.831Z,11.50
2022-11-24T04:32:33.531Z,13.60
2022-11-24T04:35:00.248Z,16.00
2022-11-24T04:37:27.496Z,15.60
2022-11-24T04:39:54.798Z,12.60
2022-11-24T04:42:21.627Z,11.70
2022-11-24T04:44:48.304Z,10.20
2022-11-24T04:47:18.075Z,12.30
2022-11-24T04:49:47.113Z,13.90
2022-11-24T04:52:13.947Z,11.50
2022-11-24T04:54:40.820Z,13.00
2022-11-24T04:57:15.190Z,12.50
2022-11-24T04:59:41.950Z,16.90
2022-11-24T05:02:09.961Z,15.20
2022-11-24T05:04:37.268Z,17.90
2022-11-24T05:07:05.167Z,14.40
2022-11-24T05:09:54.888Z,18.40
2022-11-24T05:12:18.651Z,11.60
2022-11-24T05:14:45.420Z,14.20
2022-11-24T05:17:12.187Z,19.50
2022-11-24T05:19:39.008Z,18.50
2022-11-24T05:22:05.809Z,15.40
2022-11-24T05:24:32.922Z,18.80
2022-11-24T05:26:59.896Z,21.10
2022-11-24T05:29:27.016Z,16.50
2022-11-24T05:31:53.863Z,16.70
2022-11-24T05:34:21.153Z,25.70
2022-11-24T05:36:54.167Z,18.30
2022-11-24T05:39:21.520Z,22.70
2022-11-24T05:41:48.311Z,21.10
2022-11-24T05:44:15.618Z,15.90
2022-11-24T05:46:42.420Z,18.50
2022-11-24T05:49:09.714Z,20.70
2022-11-24T05:51:36.778Z,21.20
2022-11-24T05:54:03.728Z,15.30
2022-11-24T05:56:31.056Z,19.40
2022-11-24T05:58:57.876Z,22.10
2022-11-24T06:01:24.653Z,18.40
2022-11-24T06:03:51.743Z,13.70
2022-11-24T06:06:18.571Z,15.50
2022-11-24T06:08:45.341Z,15.40
2022-11-24T06:11:18.147Z,10.40
2022-11-24T06:13:47.956Z,17.60
2022-11-24T06:16:15.373Z,14.80
2022-11-24T06:18:42.422Z,23.30
2022-11-24T06:21:11.196Z,13.70
2022-11-24T06:23:39.427Z,16.60
2022-11-24T06:26:06.563Z,16.80
2022-11-24T06:28:33.402Z,19.00
2022-11-24T06:31:04.765Z,12.40
2022-11-24T06:33:33.801Z,15.60
2022-11-24T06:36:02.988Z,22.10
2022-11-24T06:38:30.786Z,20.90
2022-11-24T06:41:05.946Z,15.10
2022-11-24T06:43:33.875Z,20.20
2022-11-24T06:46:01.381Z,15.60
2022-11-24T06:48:28.452Z,14.80
2022-11-24T06:51:00.552Z,14.50
2022-11-24T06:53:31.053Z,18.30
2022-11-24T06:56:01.638Z,24.10
2022-11-24T06:58:28.536Z,18.00
2022-11-24T07:00:55.414Z,12.90
2022-11-24T07:03:22.570Z,19.60
2022-11-24T07:05:54.701Z,15.50
2022-11-24T07:08:21.722Z,27.70
2022-11-24T07:10:48.563Z,12.30
2022-11-24T07:13:15.390Z,18.80
2022-11-24T07:15:42.248Z,15.40
2022-11-24T07:18:08.998Z,13.70
2022-11-24T07:20:35.859Z,15.80
2022-11-24T07:23:02.757Z,14.10
2022-11-24T07:25:29.567Z,11.10
2022-11-24T07:27:57.546Z,14.90
2022-11-24T07:30:26.154Z,12.10
2022-11-24T07:32:59.402Z,13.90
2022-11-24T07:35:26.665Z,13.00
2022-11-24T07:37:57.769Z,15.30
2022-11-24T07:40:26.231Z,25.60
2022-11-24T07:42:53.686Z,15.60
2022-11-24T07:45:20.885Z,24.80
2022-11-24T07:47:47.768Z,9.40
2022-11-24T07:50:14.628Z,9.00
2022-11-24T07:52:41.385Z,12.10
2022-11-24T07:55:08.917Z,7.90
2022-11-24T07:57:35.831Z,16.60
2022-11-24T08:00:05.471Z,46.80
2022-11-24T08:02:33.362Z,11.70
2022-11-24T08:05:00.189Z,8.50
2022-11-24T08:07:27.052Z,11.30
2022-11-24T08:09:53.921Z,12.70
2022-11-24T08:12:21.279Z,21.60
2022-11-24T08:14:49.829Z,13.20
2022-11-24T08:17:17.757Z,11.60
2022-11-24T08:19:44.604Z,10.30
2022-11-24T08:22:11.423Z,10.70
2022-11-24T08:24:38.402Z,7.00
2022-11-24T08:27:05.144Z,9.80
2022-11-24T08:29:32.053Z,10.10
2022-11-24T08:31:58.942Z,8.50
2022-11-24T08:34:26.500Z,9.90
2022-11-24T08:36:53.319Z,5.20
2022-11-24T08:39:20.242Z,14.30
2022-11-24T08:41:47.138Z,12.70
2022-11-24T08:44:15.488Z,10.70
2022-11-24T08:46:42.695Z,15.90
2022-11-24T08:49:10.135Z,16.30
2022-11-24T08:51:37.308Z,9.10
2022-11-24T08:54:04.133Z,13.10
2022-11-24T08:56:33.148Z,12.70
2022-11-24T08:59:00.535Z,13.60
2022-11-24T09:01:28.886Z,8.10
2022-11-24T09:03:55.929Z,10.20
2022-11-24T09:06:26.358Z,12.90
2022-11-24T09:08:54.160Z,11.30
2022-11-24T09:11:21.460Z,10.80
2022-11-24T09:13:48.739Z,13.40
2022-11-24T09:16:19.150Z,8.80
2022-11-24T09:18:46.821Z,11.30
2022-11-24T09:21:15.768Z,10.70
2022-11-24T09:23:44.354Z,11.60
2022-11-24T09:26:11.121Z,11.90
2022-11-24T09:28:38.552Z,12.90
2022-11-24T09:31:08.112Z,9.90
2022-11-24T09:33:36.129Z,12.40
2022-11-24T09:36:03.547Z,9.70
2022-11-24T09:38:30.668Z,12.20
2022-11-24T09:41:14.471Z,11.90
2022-11-24T09:44:05.814Z,10.70
2022-11-24T09:46:43.605Z,12.70
2022-11-24T09:49:32.653Z,10.80
2022-11-24T09:52:04.930Z,7.90
2022-11-24T09:54:35.249Z,11.00
2022-11-24T09:57:04.583Z,23.10
2022-11-24T09:59:31.396Z,18.40
2022-11-24T10:01:59.787Z,10.70
2022-11-24T10:04:33.501Z,8.60
2022-11-24T10:07:26.278Z,8.60
2022-11-24T10:10:02.010Z,14.30
2022-11-24T10:13:02.752Z,11.60
2022-11-24T10:15:47.736Z,11.80
2022-11-24T10:18:52.184Z,8.10
2022-11-24T10:21:40.096Z,14.70
2022-11-24T10:24:34.123Z,15.30
2022-11-24T10:27:08.689Z,19.40
2022-11-24T10:29:40.965Z,33.10
2022-11-24T10:32:18.882Z,34.10
2022-11-24T10:34:50.097Z,37.80
2022-11-24T10:37:35.015Z,14.80
2022-11-24T10:40:56.369Z,16.50
2022-11-24T10:43:28.858Z,8.40
2022-11-24T10:46:26.579Z,11.20
2022-11-24T10:49:00.136Z,14.20
2022-11-24T10:51:29.742Z,11.00
2022-11-24T10:54:19.155Z,15.20
2022-11-24T10:56:49.853Z,10.30
2022-11-24T10:59:35.771Z,17.30
2022-11-24T11:02:31.820Z,8.90
2022-11-24T11:05:24.405Z,15.20
2022-11-24T11:08:20.143Z,13.20
2022-11-24T11:10:50.151Z,8.40
2022-11-24T11:13:35.117Z,13.50
2022-11-24T11:16:22.699Z,12.90
2022-11-24T11:18:49.786Z,12.80
2022-11-24T11:21:36.894Z,14.90
2022-11-24T11:24:15.080Z,14.40
2022-11-24T11:26:42.747Z,15.00
2022-11-24T11:35:12.095Z,9.70
2022-11-24T11:37:39.199Z,10.60
2022-11-24T11:40:15.082Z,13.60
2022-11-24T11:43:02.377Z,8.20
2022-11-24T11:45:37.888Z,10.40
2022-11-24T11:48:10.662Z,18.10
2022-11-24T11:51:21.060Z,10.50
2022-11-24T11:53:52.544Z,12.00
2022-11-24T11:56:32.519Z,19.00
2022-11-24T11:59:20.623Z,19.80
2022-11-24T12:02:12.219Z,14.70
2022-11-24T12:04:41.796Z,12.00
2022-11-24T12:07:27.666Z,14.90
2022-11-24T12:09:54.457Z,20.30
2022-11-24T12:12:47.300Z,9.40
2022-11-24T12:15:34.704Z,12.80
2022-11-24T12:18:33.507Z,10.60
2022-11-24T12:21:24.830Z,15.30
2022-11-24T12:24:23.352Z,12.20
2022-11-24T12:26:56.326Z,15.50
2022-11-24T12:29:44.810Z,9.70
2022-11-24T12:32:30.331Z,23.40
2022-11-24T12:35:13.911Z,11.10
2022-11-24T12:37:40.710Z,8.90
2022-11-24T12:40:15.374Z,11.50
2022-11-24T12:43:06.771Z,15.10
2022-11-24T12:45:48.617Z,15.90
2022-11-24T12:48:28.210Z,11.80
2022-11-24T12:50:57.315Z,17.80
2022-11-24T12:53:28.882Z,16.60
2022-11-24T12:56:06.980Z,19.50
2022-11-24T12:58:52.683Z,12.30
2022-11-24T13:01:41.253Z,10.50
2022-11-24T13:04:20.296Z,21.70
2022-11-24T13:06:49.447Z,9.40
2022-11-24T13:09:17.509Z,9.40
2022-11-24T13:11:49.592Z,18.40
2022-11-24T13:14:30.851Z,33.00
2022-11-24T13:19:49.037Z,20.70
2022-11-24T13:22:25.414Z,15.60
2022-11-24T13:25:15.785Z,15.70
2022-11-24T13:27:54.890Z,15.40
2022-11-24T13:30:33.881Z,29.50
2022-11-24T13:33:16.943Z,17.50
2022-11-24T13:36:02.639Z,17.00
2022-11-24T13:38:53.227Z,10.80
2022-11-24T13:41:49.119Z,8.50
2022-11-24T13:44:15.939Z,11.80
2022-11-24T13:47:33.053Z,11.30
2022-11-24T13:50:01.396Z,26.00
2022-11-24T13:52:42.271Z,19.40
2022-11-24T13:55:11.992Z,11.10
2022-11-24T13:57:46.122Z,16.10
2022-11-24T14:00:23.373Z,9.60
2022-11-24T14:02:53.390Z,14.50
2022-11-24T14:05:33.166Z,25.20
2022-11-24T14:08:00.152Z,14.00
2022-11-24T14:10:40.869Z,23.30
2022-11-24T14:13:20.546Z,9.40
2022-11-24T14:16:02.531Z,15.50
2022-11-24T14:18:30.960Z,16.80
2022-11-24T14:21:00.966Z,11.60
2022-11-24T14:23:27.824Z,12.50
2022-11-24T14:25:54.681Z,12.30
2022-11-24T14:28:27.306Z,17.00
2022-11-24T14:31:19.577Z,15.50
2022-11-24T14:33:46.755Z,17.20
2022-11-24T14:36:17.610Z,15.50
2022-11-24T14:38:44.624Z,21.20
2022-11-24T14:41:25.708Z,20.60
2022-11-24T14:44:06.982Z,20.70
2022-11-24T14:46:34.567Z,8.30
2022-11-24T14:49:02.158Z,9.80
2022-11-24T14:51:31.974Z,13.00
2022-11-24T14:54:02.588Z,22.00
2022-11-24T14:56:34.855Z,10.40
2022-11-24T14:59:02.723Z,9.90
2022-11-24T15:01:34.316Z,14.30
2022-11-24T15:04:32.333Z,13.10
2022-11-24T15:07:18.851Z,11.40
2022-11-24T15:09:51.364Z,11.20
2022-11-24T15:12:30.001Z,9.70
2022-11-24T15:15:13.738Z,10.30
2022-11-24T15:17:50.269Z,9.30
2022-11-24T15:20:26.146Z,12.30
2022-11-24T15:23:24.297Z,15.20
2022-11-24T15:25:52.887Z,11.60
2022-11-24T15:28:25.113Z,16.10
2022-11-24T15:31:12.510Z,13.20
2022-11-24T15:33:41.017Z,15.20
2022-11-24T15:36:08.157Z,34.10
2022-11-24T15:38:34.927Z,14.60
2022-11-24T15:41:05.053Z,14.10
2022-11-24T15:43:34.582Z,11.60
2022-11-24T15:46:03.254Z,12.60
2022-11-24T15:48:30.811Z,17.10
2022-11-24T15:50:58.859Z,13.00
2022-11-24T15:53:32.056Z,20.60
2022-11-24T15:56:01.058Z,17.10
2022-11-24T15:58:27.834Z,10.90
2022-11-24T16:00:54.768Z,9.10
2022-11-24T16:03:46.396Z,9.90
2022-11-24T16:06:16.746Z,9.30
2022-11-24T16:08:46.384Z,8.90
2022-11-24T16:11:13.252Z,18.00
2022-11-24T16:13:40.137Z,8.00
2022-11-24T16:16:07.159Z,14.00
2022-11-24T16:18:38.801Z,15.40
2022-11-24T16:21:10.196Z,14.00
2022-11-24T16:23:37.577Z,17.10
2022-11-24T16:26:05.417Z,13.70
2022-11-24T16:28:32.558Z,13.90
2022-11-24T16:30:59.347Z,11.70
2022-11-24T16:33:28.394Z,21.90
2022-11-24T16:35:55.209Z,15.80
2022-11-24T16:38:22.172Z,13.70
2022-11-24T16:40:53.052Z,18.20
2022-11-24T16:43:19.842Z,12.10
2022-11-24T16:45:59.519Z,15.60
2022-11-24T16:48:26.406Z,25.30
2022-11-24T16:50:53.407Z,16.00
2022-11-24T16:53:20.092Z,15.30
2022-11-24T16:55:56.558Z,20.10
2022-11-24T16:58:23.538Z,14.10
2022-11-24T17:00:50.596Z,17.00
2022-11-24T17:03:17.475Z,16.40
2022-11-24T17:05:44.216Z,16.40
2022-11-24T17:08:10.981Z,14.20
2022-11-24T17:10:38.266Z,13.20
2022-11-24T17:13:05.057Z,12.30
2022-11-24T17:15:35.477Z,14.90
2022-11-24T17:20:51.944Z,11.70
2022-11-24T17:23:19.137Z,17.20
2022-11-24T17:25:47.765Z,19.70
2022-11-24T17:28:15.192Z,14.90
2022-11-24T17:30:42.079Z,15.40
2022-11-24T17:33:09.219Z,18.10
2022-11-24T17:35:36.478Z,17.70
2022-11-24T17:38:03.819Z,24.50
2022-11-24T17:40:30.788Z,37.20
2022-11-24T17:43:01.278Z,28.00
2022-11-24T17:45:29.914Z,18.00
2022-11-24T17:48:00.375Z,17.50
2022-11-24T17:50:27.285Z,22.50
2022-11-24T17:52:54.290Z,24.60
2022-11-24T17:55:21.207Z,16.90
2022-11-24T17:57:48.000Z,14.90
2022-11-24T18:00:15.698Z,14.80
2022-11-24T18:02:42.624Z,16.50
2022-11-24T18:05:09.566Z,22.20
2022-11-24T18:07:36.548Z,19.70
2022-11-24T18:10:03.947Z,21.00
2022-11-24T18:12:31.825Z,20.10
2022-11-24T18:14:58.702Z,19.70
2022-11-24T18:17:25.472Z,13.10
2022-11-24T18:19:52.283Z,20.20
2022-11-24T18:22:21.090Z,21.10
2022-11-24T18:24:58.325Z,18.20
2022-11-24T18:27:25.115Z,21.30
2022-11-24T18:29:56.069Z,25.10
2022-11-24T18:32:23.121Z,13.10
2022-11-24T18:34:50.656Z,17.90
2022-11-24T18:37:17.519Z,21.40
2022-11-24T18:39:44.310Z,24.10
2022-11-24T18:42:11.239Z,20.70
2022-11-24T18:44:37.998Z,19.70
2022-11-24T18:47:04.997Z,22.50
2022-11-24T18:49:31.860Z,24.20
2022-11-24T18:51:58.977Z,20.20
2022-11-24T18:54:28.517Z,20.10
2022-11-24T18:56:58.975Z,27.20
2022-11-24T18:59:29.847Z,26.70
2022-11-24T19:01:57.565Z,30.40
2022-11-24T19:04:25.698Z,43.80
2022-11-24T19:06:52.611Z,42.00
2022-11-24T19:09:22.086Z,35.70
2022-11-24T19:11:48.897Z,32.60
2022-11-24T19:14:17.543Z,32.30
2022-11-24T19:16:47.073Z,31.20
2022-11-24T19:19:14.211Z,42.50
2022-11-24T19:21:41.311Z,24.80
2022-11-24T19:24:09.501Z,27.00
2022-11-24T19:26:37.329Z,24.70
2022-11-24T19:29:05.872Z,22.30
2022-11-24T19:31:34.269Z,27.00
2022-11-24T19:34:02.520Z,25.70
2022-11-24T19:36:35.265Z,30.30
2022-11-24T19:39:04.221Z,19.80
2022-11-24T19:41:32.713Z,17.00
2022-11-24T19:44:02.785Z,23.70
2022-11-24T19:46:29.906Z,13.80
2022-11-24T19:49:01.351Z,16.60
2022-11-24T19:51:31.145Z,14.30
2022-11-24T19:53:58.305Z,14.90
2022-11-24T19:56:27.787Z,15.30
2022-11-24T19:58:54.935Z,19.50
2022-11-24T20:01:24.878Z,11.90
2022-11-24T20:04:00.192Z,11.40
2022-11-24T20:06:33.176Z,12.70
2022-11-24T20:09:01.156Z,12.00
2022-11-24T20:11:28.691Z,20.00
2022-11-24T20:13:57.362Z,19.20
2022-11-24T20:16:28.801Z,14.40
2022-11-24T20:18:58.669Z,15.00
2022-11-24T20:21:28.247Z,13.20
2022-11-24T20:24:02.516Z,21.00
2022-11-24T20:26:32.723Z,20.00
2022-11-24T20:29:00.187Z,17.40
2022-11-24T20:31:31.635Z,19.80
2022-11-24T20:34:00.728Z,23.30
2022-11-24T20:36:30.002Z,15.20
2022-11-24T20:38:59.572Z,16.20
2022-11-24T20:41:29.357Z,20.20
2022-11-24T20:43:59.304Z,27.60
2022-11-24T20:46:31.753Z,19.70
2022-11-24T20:48:59.466Z,16.40
2022-11-24T20:51:28.389Z,19.90
2022-11-24T20:53:57.878Z,23.10
2022-11-24T20:56:28.557Z,20.70
2022-11-24T20:58:55.776Z,13.20
2022-11-24T21:01:25.463Z,14.60
2022-11-24T21:03:55.262Z,19.50
2022-11-24T21:06:22.732Z,17.30
2022-11-24T21:08:50.513Z,19.70
2022-11-24T21:11:18.391Z,18.80
2022-11-24T21:13:48.111Z,17.30
2022-11-24T21:16:23.820Z,15.30
2022-11-24T21:18:54.277Z,15.20
2022-11-24T21:21:22.636Z,14.40
2022-11-24T21:23:49.859Z,17.90
2022-11-24T21:26:17.627Z,19.30
2022-11-24T21:28:46.809Z,14.90
2022-11-24T21:31:16.634Z,19.10
2022-11-24T21:33:53.979Z,10.70
2022-11-24T21:36:23.886Z,13.90
2022-11-24T21:38:53.054Z,14.50
2022-11-24T21:41:21.356Z,16.80
2022-11-24T21:43:49.503Z,13.50
2022-11-24T21:46:16.568Z,14.20
2022-11-24T21:48:43.974Z,18.50
2022-11-24T21:51:17.620Z,13.90
2022-11-24T21:53:45.387Z,18.70
2022-11-24T21:56:15.126Z,11.60
2022-11-24T21:58:56.722Z,17.10
2022-11-24T22:01:29.231Z,18.00
2022-11-24T22:03:56.256Z,15.60
2022-11-24T22:06:23.590Z,17.70
2022-11-24T22:08:50.437Z,19.80
2022-11-24T22:11:23.260Z,18.20
2022-11-24T22:13:50.900Z,27.30
2022-11-24T22:16:20.580Z,25.10
2022-11-24T22:18:47.798Z,23.60
2022-11-24T22:21:17.167Z,24.30
2022-11-24T22:23:44.035Z,29.00
2022-11-24T22:26:19.280Z,25.20
2022-11-24T22:28:46.718Z,17.90
2022-11-24T22:31:19.194Z,30.40
2022-11-24T22:33:46.940Z,24.30
2022-11-24T22:36:14.756Z,17.30
2022-11-24T22:38:42.863Z,30.10
2022-11-24T22:41:12.883Z,19.30
2022-11-24T22:43:41.222Z,23.20
2022-11-24T22:46:17.348Z,42.90
2022-11-24T22:48:46.139Z,28.70
2022-11-24T22:51:15.651Z,27.40
2022-11-24T22:53:47.984Z,24.50
2022-11-24T22:56:16.005Z,31.10
2022-11-24T22:58:42.773Z,25.30
2022-11-24T23:01:15.113Z,34.70
2022-11-24T23:03:42.581Z,27.10
2022-11-24T23:06:16.079Z,28.90
2022-11-24T23:08:43.350Z,25.30
2022-11-24T23:11:13.136Z,30.90
2022-11-24T23:13:40.147Z,18.20
2022-11-24T23:16:10.686Z,35.80
2022-11-24T23:18:38.198Z,23.00
2022-11-24T23:21:06.012Z,24.50
2022-11-24T23:23:33.793Z,21.50
2022-11-24T23:26:02.733Z,33.30
2022-11-24T23:28:30.111Z,28.30
2022-11-24T23:31:05.318Z,29.80
2022-11-24T23:33:32.689Z,27.40
2022-11-24T23:36:01.666Z,29.20
2022-11-24T23:38:31.855Z,27.10
2022-11-24T23:41:00.226Z,29.40
2022-11-24T23:43:26.936Z,33.80
2022-11-24T23:45:53.755Z,25.60
2022-11-24T23:48:20.581Z,28.90
2022-11-24T23:50:47.303Z,29.60
2022-11-24T23:53:14.078Z,29.80
2022-11-24T23:55:40.803Z,23.70
2022-11-24T23:58:07.510Z,23.50
